Time;durP1;ratioP1;P1;durP2;ratioP2;P2;SDS_P1;SDS_P2;PMS_P1;PMS_P2;Temp;Humidity;BMP_temperature;BMP_pressure;BME280_temperature;BME280_humidity;BME280_pressure;Samples;Min_cycle;Max_cycle;Signal;HPM_P1;HPM_P2
2022/12/29 10:29:31;;;;;;;10.90;2.77;;;;;;;8.68;100.00;100219.22;5293114;27;20439;-72
2022/12/29 10:32:17;;;;;;;15.10;2.97;;;;;;;8.64;100.00;100215.09;5272127;28;20037;-71
2022/12/29 10:34:54;;;;;;;9.50;2.63;;;;;;;8.55;100.00;100216.50;5271601;28;20029;-73
2022/12/29 10:37:50;;;;;;;15.97;3.20;;;;;;;8.60;100.00;100231.91;5271532;28;20375;-71
2022/12/29 10:40:35;;;;;;;12.57;3.27;;;;;;;8.57;100.00;100229.50;5282992;28;20465;-73
2022/12/29 10:43:23;;;;;;;15.87;3.23;;;;;;;8.57;100.00;100237.31;5293263;28;20094;-73
2022/12/29 10:46:01;;;;;;;10.80;2.70;;;;;;;8.58;100.00;100244.22;5276493;28;20592;-71
2022/12/29 10:48:34;;;;;;;9.57;2.10;;;;;;;8.65;100.00;100250.75;5280795;28;20028;-76
2022/12/29 10:51:11;;;;;;;11.77;2.97;;;;;;;8.61;100.00;100246.63;5284866;28;20124;-73
2022/12/29 10:53:47;;;;;;;12.40;2.27;;;;;;;8.62;100.00;100248.31;5278141;28;20021;-73
2022/12/29 10:56:32;;;;;;;15.40;2.90;;;;;;;8.64;100.00;100251.66;5285428;28;20069;-73
2022/12/29 10:59:13;;;;;;;13.70;2.83;;;;;;;8.63;100.00;100270.88;5285619;28;20033;-73
2022/12/29 11:02:04;;;;;;;14.97;3.20;;;;;;;8.63;100.00;100270.03;5270290;28;20609;-73
2022/12/29 11:04:47;;;;;;;12.33;2.77;;;;;;;8.60;100.00;100260.63;5266441;28;20035;-72
2022/12/29 11:07:20;;;;;;;11.67;2.87;;;;;;;8.49;100.00;100263.84;5278772;28;20048;-74
2022/12/29 11:09:52;;;;;;;12.77;2.70;;;;;;;8.51;100.00;100276.78;5276190;28;20044;-73
2022/12/29 11:12:27;;;;;;;11.03;2.67;;;;;;;8.51;100.00;100276.78;5291864;28;20037;-72
2022/12/29 11:15:08;;;;;;;12.93;2.87;;;;;;;8.48;100.00;100268.22;5291881;28;20181;-72
2022/12/29 11:17:44;;;;;;;14.67;3.70;;;;;;;8.44;100.00;100258.91;5276034;28;20086;-73
2022/12/29 11:20:30;;;;;;;13.03;2.97;;;;;;;8.51;100.00;100282.00;5269508;28;20037;-73
2022/12/29 11:23:04;;;;;;;9.53;2.57;;;;;;;8.45;100.00;100270.16;5279727;28;20483;-73
2022/12/29 11:25:35;;;;;;;15.13;3.20;;;;;;;8.49;100.00;100274.28;5280194;28;20069;-72
2022/12/29 11:28:15;;;;;;;11.10;2.63;;;;;;;8.54;100.00;100281.81;5275492;28;20045;-75
2022/12/29 11:31:00;;;;;;;12.40;2.33;;;;;;;8.62;100.00;100291.84;5268053;28;20029;-74
2022/12/29 11:33:32;;;;;;;9.07;2.85;;;;;;;8.62;100.00;100291.84;5263728;28;20112;-73
2022/12/29 11:36:20;;;;;;;12.43;2.27;;;;;;;8.63;100.00;100291.75;5250650;28;20426;-73
2022/12/29 11:38:54;;;;;;;16.07;3.13;;;;;;;8.66;100.00;100303.75;5261286;28;20108;-72
2022/12/29 11:41:28;;;;;;;13.20;3.25;;;;;;;8.63;100.00;100289.13;5256439;28;20063;-71
2022/12/29 11:44:04;;;;;;;12.20;3.25;;;;;;;8.64;100.00;100288.19;5258088;28;20029;-74
2022/12/29 11:46:38;;;;;;;20.87;3.67;;;;;;;8.67;100.00;100303.69;5257769;28;20029;-73
2022/12/29 11:49:18;;;;;;;16.50;3.17;;;;;;;8.70;100.00;100305.28;5256698;28;20040;-73
2022/12/29 11:51:51;;;;;;;14.63;3.20;;;;;;;8.68;100.00;100302.75;5257068;28;20021;-74
2022/12/29 11:54:30;;;;;;;15.93;3.53;;;;;;;8.72;100.00;100319.06;5257799;28;20025;-86
2022/12/29 11:57:14;;;;;;;12.93;3.53;;;;;;;8.65;100.00;100300.34;5257390;28;20021;-78
2022/12/29 11:59:55;;;;;;;18.52;3.75;;;;;;;8.77;100.00;100316.16;5255917;28;20029;-75
2022/12/29 12:02:34;;;;;;;15.07;3.03;;;;;;;8.78;100.00;100310.03;5254685;28;20029;-82
2022/12/29 12:05:30;;;;;;;12.17;2.63;;;;;;;8.81;100.00;100315.88;5256466;28;20033;-76
2022/12/29 12:08:18;;;;;;;15.63;4.23;;;;;;;8.88;100.00;100316.38;5255688;28;20037;-82
2022/12/29 12:10:59;;;;;;;15.70;3.30;;;;;;;8.90;100.00;100308.44;5256774;28;20021;-73
2022/12/29 12:13:38;;;;;;;16.20;3.63;;;;;;;8.92;100.00;100311.81;5257084;28;20030;-80
2022/12/29 12:16:18;;;;;;;22.77;3.97;;;;;;;8.97;100.00;100314.13;5256182;28;20029;-82
2022/12/29 12:19:28;;;;;;;13.40;3.33;;;;;;;8.98;100.00;100321.88;5266192;28;20021;-76
2022/12/29 12:22:10;;;;;;;12.40;3.30;;;;;;;8.91;100.00;100305.72;5262707;28;20112;-81
2022/12/29 12:24:51;;;;;;;14.33;2.80;;;;;;;9.01;100.00;100318.22;5255198;28;20368;-74
2022/12/29 12:27:33;;;;;;;15.80;3.03;;;;;;;9.01;100.00;100326.03;5253635;28;20033;-73
2022/12/29 12:30:15;;;;;;;12.67;3.50;;;;;;;9.01;100.00;100316.44;5256579;28;20577;-74
2022/12/29 12:33:05;;;;;;;9.00;2.63;;;;;;;9.09;100.00;100315.97;5256519;28;20025;-75
2022/12/29 12:35:52;;;;;;;10.10;2.90;;;;;;;9.05;100.00;100310.09;5255422;28;20075;-72
2022/12/29 12:39:02;;;;;;;12.23;3.03;;;;;;;9.14;100.00;100310.47;5257742;28;20021;-77
2022/12/29 12:42:07;;;;;;;17.00;3.93;;;;;;;9.18;100.00;100312.78;5245262;28;20098;-78
2022/12/29 12:45:11;;;;;;;12.88;2.63;;;;;;;9.31;100.00;100312.00;5263707;28;20475;-74
2022/12/29 12:48:04;;;;;;;11.00;2.80;;;;;;;9.35;100.00;100313.50;5276461;28;20136;-74
2022/12/29 12:51:07;;;;;;;11.17;3.57;;;;;;;9.28;100.00;100317.44;5265371;28;20487;-74
2022/12/29 12:54:08;;;;;;;14.90;2.87;;;;;;;9.33;100.00;100323.22;5251789;28;20112;-73
2022/12/29 12:56:56;;;;;;;8.20;2.57;;;;;;;9.32;100.00;100334.59;5247093;28;20474;-74
2022/12/29 13:00:05;;;;;;;10.47;2.63;;;;;;;9.35;100.00;100336.19;5254728;28;20049;-77
2022/12/29 13:02:57;;;;;;;10.03;2.77;;;;;;;9.42;100.00;100334.84;5267674;28;20380;-76
2022/12/29 13:05:56;;;;;;;7.33;2.40;;;;;;;9.39;100.00;100327.22;5263398;28;20025;-73
2022/12/29 13:08:36;;;;;;;9.70;2.30;;;;;;;9.33;100.00;100341.50;5245320;28;20056;-76
2022/12/29 13:11:51;;;;;;;15.47;2.73;;;;;;;9.36;100.00;100338.69;5256035;28;20044;-80
2022/12/29 13:14:31;;;;;;;12.27;3.93;;;;;;;9.27;100.00;100339.25;5244966;28;20025;-87
2022/12/29 13:17:21;;;;;;;9.93;2.77;;;;;;;9.23;100.00;100348.25;5258177;28;20028;-76
2022/12/29 13:20:21;;;;;;;10.30;2.50;;;;;;;9.17;100.00;100345.06;5251943;28;20020;-77
2022/12/29 13:23:14;;;;;;;11.60;2.73;;;;;;;9.12;100.00;100360.19;5253603;28;20037;-74
2022/12/29 13:26:24;;;;;;;13.67;3.87;;;;;;;9.01;100.00;100362.63;5236282;28;20024;-76
2022/12/29 13:29:10;;;;;;;21.40;4.77;;;;;;;8.94;100.00;100359.53;5228468;28;20136;-75
2022/12/29 13:31:45;;;;;;;18.20;3.60;;;;;;;8.86;100.00;100370.47;5229259;28;20120;-82
2022/12/29 13:34:45;;;;;;;17.57;3.77;;;;;;;8.85;100.00;100381.00;5238282;28;20056;-72
2022/12/29 13:37:20;;;;;;;11.80;3.40;;;;;;;8.76;100.00;100379.78;5248331;28;20116;-71
2022/12/29 13:39:56;;;;;;;14.93;3.10;;;;;;;8.70;100.00;100371.38;5241952;28;20037;-69
2022/12/29 13:42:28;;;;;;;16.43;3.23;;;;;;;8.65;100.00;100383.88;5243908;28;20506;-73
2022/12/29 13:45:04;;;;;;;10.97;2.90;;;;;;;8.60;100.00;100372.88;5243948;28;20041;-71
2022/12/29 13:47:40;;;;;;;12.87;2.80;;;;;;;8.56;100.00;100376.56;5244203;28;20041;-72
2022/12/29 13:50:24;;;;;;;9.70;2.60;;;;;;;8.53;100.00;100377.56;5242178;28;20033;-71
2022/12/29 13:53:06;;;;;;;13.80;2.77;;;;;;;8.50;100.00;100374.31;5243862;28;20032;-74
2022/12/29 13:55:49;;;;;;;11.97;2.53;;;;;;;8.41;100.00;100371.28;5245492;28;20617;-74
2022/12/29 13:58:31;;;;;;;12.43;2.30;;;;;;;8.45;100.00;100379.78;5243239;28;20446;-71
2022/12/29 14:01:17;;;;;;;8.37;2.40;;;;;;;8.40;100.00;100382.66;5243109;28;20605;-76
2022/12/29 14:03:54;;;;;;;7.87;2.37;;;;;;;8.35;100.00;100376.88;5241651;28;20573;-71
2022/12/29 14:06:32;;;;;;;11.57;3.50;;;;;;;8.39;100.00;100386.22;5242142;28;20408;-77
2022/12/29 14:09:06;;;;;;;11.47;3.70;;;;;;;8.34;100.00;100383.84;5243434;28;20140;-73
2022/12/29 14:11:40;;;;;;;12.30;2.80;;;;;;;8.33;100.00;100378.72;5242193;28;20033;-73
2022/12/29 14:14:18;;;;;;;;;;;;;;;8.46;100.00;100390.16;5243877;28;20033;-73
2022/12/29 14:16:49;;;;;;;11.47;3.50;;;;;;;8.38;100.00;100404.56;5243075;28;19920;-72
2022/12/29 14:19:27;;;;;;;11.50;2.73;;;;;;;8.38;100.00;100397.56;5241580;28;20041;-71
2022/12/29 14:22:02;;;;;;;12.00;3.30;;;;;;;8.36;100.00;100386.38;5243327;28;20032;-71
2022/12/29 14:24:36;;;;;;;8.57;2.90;;;;;;;8.35;100.00;100379.47;5244516;28;20380;-73
2022/12/29 14:27:10;;;;;;;16.23;4.68;;;;;;;8.39;100.00;100387.97;5243135;28;20147;-72
2022/12/29 14:29:44;;;;;;;11.50;2.92;;;;;;;8.29;100.00;100372.03;5244178;28;20071;-71
2022/12/29 14:32:24;;;;;;;11.85;2.92;;;;;;;8.38;100.00;100381.09;5243310;28;20396;-72
2022/12/29 14:35:03;;;;;;;13.33;3.43;;;;;;;8.34;100.00;100390.84;5241315;28;20113;-73
2022/12/29 14:37:38;;;;;;;14.00;3.40;;;;;;;8.32;100.00;100390.94;5241710;28;20072;-71
2022/12/29 14:40:26;;;;;;;16.57;3.07;;;;;;;8.38;100.00;100391.53;5239848;28;20285;-72
2022/12/29 14:42:57;;;;;;;13.90;3.10;;;;;;;8.33;100.00;100400.44;5242427;28;20029;-73
2022/12/29 14:45:30;;;;;;;12.43;2.80;;;;;;;8.34;100.00;100406.50;5240277;28;20090;-72
2022/12/29 14:48:40;;;;;;;9.63;3.30;;;;;;;8.38;100.00;100400.16;5238271;28;20056;-72
2022/12/29 14:51:34;;;;;;;12.77;3.37;;;;;;;8.35;100.00;100408.19;5242438;28;20965;-76
2022/12/29 14:54:49;;;;;;;15.07;3.65;;;;;;;8.39;100.00;100414.91;5242262;28;20037;-73
2022/12/29 14:57:39;;;;;;;10.47;2.30;;;;;;;8.36;100.00;100422.91;5218669;28;20132;-70
2022/12/29 15:00:29;;;;;;;10.47;2.47;;;;;;;8.34;100.00;100424.78;5217987;28;20041;-73
2022/12/29 15:03:22;;;;;;;13.63;2.77;;;;;;;8.37;100.00;100419.38;5238949;28;20053;-76
2022/12/29 15:05:57;;;;;;;10.57;3.90;;;;;;;8.36;100.00;100422.91;5246276;28;20231;-78
2022/12/29 15:08:37;;;;;;;12.73;4.50;;;;;;;8.35;100.00;100427.31;5244735;28;20074;-78
2022/12/29 15:11:40;;;;;;;14.27;2.93;;;;;;;8.28;100.00;100418.13;5248180;28;20118;-74
2022/12/29 15:14:28;;;;;;;11.53;2.77;;;;;;;8.33;100.00;100428.31;5244356;28;20041;-75
2022/12/29 15:17:01;;;;;;;16.17;2.23;;;;;;;8.29;100.00;100429.41;5250790;28;20055;-76
2022/12/29 15:19:32;;;;;;;12.20;2.03;;;;;;;8.32;100.00;100434.47;5249174;28;20040;-73
2022/12/29 15:22:04;;;;;;;8.27;2.07;;;;;;;8.27;100.00;100432.13;5251933;28;20140;-77
2022/12/29 15:24:41;;;;;;;10.90;2.80;;;;;;;8.20;100.00;100431.59;5249667;28;20119;-77
2022/12/29 15:27:15;;;;;;;8.17;2.00;;;;;;;8.17;100.00;100436.19;5245977;28;20155;-76
2022/12/29 15:29:46;;;;;;;7.97;1.60;;;;;;;8.14;100.00;100439.78;5246229;28;20082;-74
2022/12/29 15:32:21;;;;;;;4.23;1.27;;;;;;;8.17;100.00;100442.22;5248424;28;20028;-78
2022/12/29 15:34:55;;;;;;;5.60;1.10;;;;;;;8.15;100.00;100440.63;5246072;28;20017;-74
2022/12/29 15:37:32;;;;;;;4.37;1.43;;;;;;;8.13;100.00;100432.91;5247933;28;20029;-74
2022/12/29 15:40:04;;;;;;;7.40;2.10;;;;;;;8.06;100.00;100439.38;5256233;28;20365;-76
2022/12/29 15:42:57;;;;;;;9.30;2.77;;;;;;;8.11;100.00;100453.00;5268316;28;20050;-78
2022/12/29 15:45:33;;;;;;;4.60;1.63;;;;;;;8.04;100.00;100441.22;5264222;28;20040;-73
2022/12/29 15:48:13;;;;;;;5.53;1.50;;;;;;;8.01;100.00;100438.78;5275303;28;20045;-77
2022/12/29 15:50:45;;;;;;;6.17;1.43;;;;;;;8.03;100.00;100450.81;5276568;28;20032;-75
2022/12/29 15:53:28;;;;;;;4.77;1.80;;;;;;;8.08;100.00;100447.97;5258953;28;20388;-75
2022/12/29 15:56:06;;;;;;;7.27;1.33;;;;;;;7.99;100.00;100449.31;5259287;28;20083;-78
2022/12/29 15:58:50;;;;;;;5.87;1.90;;;;;;;7.98;100.00;100464.13;5257405;28;20064;-72
2022/12/29 16:01:36;;;;;;;9.43;2.10;;;;;;;7.98;100.00;100473.69;5242534;28;20067;-79
2022/12/29 16:04:09;;;;;;;10.07;2.33;;;;;;;7.90;100.00;100465.47;5240501;28;20112;-77
2022/12/29 16:07:00;;;;;;;4.73;1.80;;;;;;;7.94;100.00;100462.59;5243782;28;20499;-75
2022/12/29 16:09:56;;;;;;;6.13;1.53;;;;;;;7.84;100.00;100470.09;5242748;28;20033;-72
2022/12/29 16:12:34;;;;;;;8.33;1.73;;;;;;;7.81;100.00;100477.22;5242495;28;20056;-77
2022/12/29 16:15:12;;;;;;;6.07;1.43;;;;;;;7.80;100.00;100476.38;5246300;28;20033;-74
2022/12/29 16:17:52;;;;;;;10.43;3.23;;;;;;;7.78;100.00;100474.78;5246925;28;20107;-80
2022/12/29 16:20:31;;;;;;;8.40;1.90;;;;;;;7.73;100.00;100493.28;5245839;28;20045;-73
2022/12/29 16:23:02;;;;;;;6.70;2.30;;;;;;;7.67;100.00;100485.78;5248020;28;20036;-77
2022/12/29 16:25:37;;;;;;;8.03;1.63;;;;;;;7.59;100.00;100481.81;5248967;28;20033;-87
2022/12/29 16:28:19;;;;;;;7.13;1.90;;;;;;;7.67;100.00;100499.66;5248669;28;20122;-74
2022/12/29 16:31:24;;;;;;;5.77;1.50;;;;;;;7.70;100.00;100514.28;5248831;28;20679;-74
2022/12/29 16:33:55;;;;;;;8.07;2.15;;;;;;;7.60;100.00;100511.34;5242805;28;20182;-76
2022/12/29 16:36:33;;;;;;;7.77;2.00;;;;;;;7.56;100.00;100509.81;5250794;28;20033;-81
2022/12/29 16:39:20;;;;;;;5.77;1.43;;;;;;;7.55;100.00;100502.91;5251246;28;20029;-71
2022/12/29 16:41:53;;;;;;;7.73;1.83;;;;;;;7.55;100.00;100510.75;5247432;28;20036;-72
2022/12/29 16:44:33;;;;;;;8.13;2.17;;;;;;;7.53;100.00;100512.56;5248322;28;20078;-75
2022/12/29 16:47:19;;;;;;;9.00;1.83;;;;;;;7.57;100.00;100521.94;5254318;28;20092;-78
2022/12/29 16:49:53;;;;;;;5.40;1.37;;;;;;;7.53;100.00;100525.59;5248377;28;20029;-72
2022/12/29 16:52:35;;;;;;;7.70;1.70;;;;;;;7.53;100.00;100530.81;5246685;28;20054;-73
2022/12/29 16:55:16;;;;;;;9.07;1.73;;;;;;;7.47;100.00;100509.38;5246772;28;20039;-77
2022/12/29 16:57:53;;;;;;;6.77;2.33;;;;;;;7.44;100.00;100517.34;5248021;28;20041;-83
2022/12/29 17:00:28;;;;;;;7.57;2.10;;;;;;;7.52;100.00;100534.34;5246592;28;20025;-75
2022/12/29 17:03:01;;;;;;;9.33;2.17;;;;;;;7.43;100.00;100526.09;5245725;28;21173;-76
2022/12/29 17:05:33;;;;;;;9.47;2.37;;;;;;;7.45;100.00;100524.25;5246684;28;20068;-79
2022/12/29 17:08:22;;;;;;;8.50;2.27;;;;;;;7.41;100.00;100517.53;5243821;28;20051;-75
2022/12/29 17:13:46;;;;;;;9.00;2.13;;;;;;;7.32;100.00;100518.84;5246151;28;20037;-79
2022/12/29 17:16:17;;;;;;;9.33;2.40;;;;;;;7.31;100.00;100526.72;5247037;28;20033;-79
2022/12/29 17:18:48;;;;;;;12.27;2.23;;;;;;;7.34;100.00;100545.66;5246664;28;20029;-76
2022/12/29 17:21:20;;;;;;;11.47;2.60;;;;;;;7.26;100.00;100535.63;5244398;28;20154;-79
2022/12/29 17:23:51;;;;;;;8.03;3.20;;;;;;;7.32;100.00;100544.03;5247171;28;20559;-84
2022/12/29 17:26:22;;;;;;;9.77;2.63;;;;;;;7.32;100.00;100544.88;5246542;28;20774;-74
2022/12/29 17:28:54;;;;;;;8.83;2.60;;;;;;;7.20;100.00;100537.69;5246780;28;20179;-75
2022/12/29 17:31:25;;;;;;;10.50;2.43;;;;;;;7.22;100.00;100564.50;5244823;28;20033;-74
2022/12/29 17:33:57;;;;;;;12.63;3.13;;;;;;;7.22;100.00;100570.56;5246962;28;20095;-74
2022/12/29 17:36:29;;;;;;;8.20;2.10;;;;;;;7.18;100.00;100578.59;5246035;28;20052;-76
2022/12/29 17:39:00;;;;;;;15.27;3.37;;;;;;;7.08;100.00;100565.19;5246731;28;20047;-79
2022/12/29 17:41:35;;;;;;;15.43;2.83;;;;;;;7.14;100.00;100578.75;5246734;28;20083;-78
2022/12/29 17:44:06;;;;;;;13.20;3.13;;;;;;;7.10;100.00;100579.00;5247231;28;21344;-74
2022/12/29 17:46:38;;;;;;;11.27;3.43;;;;;;;6.98;100.00;100568.25;5248166;28;20138;-79
2022/12/29 17:49:12;;;;;;;12.33;2.73;;;;;;;7.11;100.00;100584.13;5246998;28;20033;-75
2022/12/29 17:51:44;;;;;;;;;;;;;;;7.23;100.00;100587.88;5246673;28;20040;-75
2022/12/29 17:54:22;;;;;;;10.30;2.33;;;;;;;7.06;100.00;100585.25;5247133;28;19936;-75
2022/12/29 17:56:53;;;;;;;14.50;3.10;;;;;;;6.98;100.00;100585.66;5246418;28;20032;-78
2022/12/29 17:59:27;;;;;;;12.57;2.87;;;;;;;6.95;100.00;100580.56;5246396;28;20040;-77
2022/12/29 18:02:01;;;;;;;15.68;3.88;;;;;;;7.01;100.00;100603.72;5246159;28;20029;-79
2022/12/29 18:04:32;;;;;;;13.30;2.90;;;;;;;6.97;100.00;100603.03;5245050;28;20040;-77
2022/12/29 18:07:10;;;;;;;13.13;3.70;;;;;;;6.94;100.00;100597.13;5245181;28;20025;-78
2022/12/29 18:09:41;;;;;;;12.10;2.87;;;;;;;6.93;100.00;100611.06;5246174;28;20025;-76
2022/12/29 18:12:37;;;;;;;15.47;4.07;;;;;;;6.97;100.00;100623.84;5245583;28;20753;-87
2022/12/29 18:15:33;;;;;;;9.63;3.03;;;;;;;6.89;100.00;100605.97;5246714;28;20037;-79
2022/12/29 18:18:17;;;;;;;16.37;3.70;;;;;;;6.89;100.00;100621.59;5238802;28;20052;-74
2022/12/29 18:20:51;;;;;;;21.87;3.93;;;;;;;6.84;100.00;100617.56;5250800;28;20044;-79
2022/12/29 18:23:27;;;;;;;15.80;3.47;;;;;;;6.85;100.00;100614.03;5260500;28;20028;-70
2022/12/29 18:26:11;;;;;;;11.90;3.10;;;;;;;6.88;100.00;100624.28;5262316;28;20025;-77
2022/12/29 18:28:43;;;;;;;16.80;3.27;;;;;;;6.78;100.00;100624.75;5253558;28;20086;-78
2022/12/29 18:31:19;;;;;;;15.43;3.40;;;;;;;6.77;100.00;100622.22;5252976;28;20108;-70
2022/12/29 18:33:51;;;;;;;15.33;3.80;;;;;;;6.81;100.00;100633.31;5262972;28;20067;-76
2022/12/29 18:36:23;;;;;;;17.10;3.20;;;;;;;6.81;100.00;100633.31;5273065;28;20021;-72
2022/12/29 18:38:55;;;;;;;15.07;3.17;;;;;;;6.70;100.00;100626.88;5266862;28;20039;-72
2022/12/29 18:41:28;;;;;;;12.47;3.90;;;;;;;6.72;100.00;100630.22;5274204;28;20499;-75
2022/12/29 18:43:59;;;;;;;14.33;3.80;;;;;;;6.64;100.00;100622.78;5274440;28;20017;-84
2022/12/29 18:46:31;;;;;;;15.80;4.23;;;;;;;6.70;100.00;100634.69;5262288;28;20468;-77
2022/12/29 18:49:02;;;;;;;15.10;5.10;;;;;;;6.74;100.00;100641.41;5252887;28;20388;-86
2022/12/29 18:51:33;;;;;;;14.03;4.60;;;;;;;6.71;100.00;100643.31;5262649;28;20078;-77
2022/12/29 18:54:05;;;;;;;15.27;4.23;;;;;;;6.59;100.00;100623.91;5262744;28;20025;-77
2022/12/29 18:56:36;;;;;;;20.73;4.73;;;;;;;6.68;100.00;100641.72;5266622;28;20108;-75
2022/12/29 18:59:07;;;;;;;12.77;3.97;;;;;;;6.68;100.00;100639.09;5258154;28;20025;-82
2022/12/29 19:01:39;;;;;;;17.63;3.93;;;;;;;6.59;100.00;100626.50;5258922;28;20036;-85
2022/12/29 19:04:13;;;;;;;14.63;3.53;;;;;;;6.63;100.00;100633.28;5259818;28;20017;-79
2022/12/29 19:06:45;;;;;;;;;;;;;;;6.74;100.00;100646.63;5269024;28;20483;-80
2022/12/29 19:09:17;;;;;;;18.57;4.33;;;;;;;6.61;100.00;100654.16;5254350;28;19916;-76
2022/12/29 19:11:48;;;;;;;16.13;4.43;;;;;;;6.58;100.00;100643.06;5248212;28;20120;-78
2022/12/29 19:14:20;;;;;;;20.23;4.83;;;;;;;6.61;100.00;100648.09;5248346;28;20197;-73
2022/12/29 19:16:51;;;;;;;13.97;3.33;;;;;;;6.57;100.00;100646.56;5246854;28;20429;-72
2022/12/29 19:19:22;;;;;;;13.33;4.03;;;;;;;6.60;100.00;100651.59;5247451;28;20021;-74
2022/12/29 19:21:56;;;;;;;19.23;4.40;;;;;;;6.62;100.00;100665.41;5249064;28;20032;-73
2022/12/29 19:24:28;;;;;;;16.33;4.55;;;;;;;6.57;100.00;100655.22;5247089;28;20033;-73
2022/12/29 19:26:59;;;;;;;20.27;5.50;;;;;;;6.58;100.00;100669.06;5246286;28;20400;-71
2022/12/29 19:29:30;;;;;;;19.60;4.57;;;;;;;6.58;100.00;100669.06;5249475;28;20107;-78
2022/12/29 19:32:02;;;;;;;17.67;3.83;;;;;;;6.58;100.00;100669.06;5247486;28;20071;-70
2022/12/29 19:34:33;;;;;;;18.10;4.50;;;;;;;6.58;100.00;100669.91;5249171;28;20531;-74
2022/12/29 19:37:04;;;;;;;18.80;3.93;;;;;;;6.56;100.00;100666.53;5247294;28;20098;-81
2022/12/29 19:39:35;;;;;;;15.63;4.17;;;;;;;6.59;100.00;100679.41;5247643;28;20111;-78
2022/12/29 19:42:07;;;;;;;17.33;4.47;;;;;;;6.51;100.00;100665.91;5247739;28;20056;-75
2022/12/29 19:44:38;;;;;;;17.90;3.93;;;;;;;6.50;100.00;100667.66;5246650;28;20249;-72
2022/12/29 19:47:09;;;;;;;14.67;3.73;;;;;;;6.58;100.00;100676.88;5246304;28;20041;-71
2022/12/29 19:49:42;;;;;;;18.67;5.33;;;;;;;6.54;100.00;100673.56;5246792;28;20035;-71
2022/12/29 19:52:13;;;;;;;14.63;4.20;;;;;;;6.52;100.00;100676.25;5247178;28;20141;-71
2022/12/29 19:54:44;;;;;;;15.77;4.30;;;;;;;6.44;100.00;100652.31;5247028;28;20033;-72
2022/12/29 19:57:16;;;;;;;18.93;6.77;;;;;;;6.57;100.00;100682.97;5246552;28;20078;-73
2022/12/29 19:59:47;;;;;;;19.43;6.77;;;;;;;6.50;100.00;100683.28;5247272;28;20021;-70
2022/12/29 20:02:22;;;;;;;19.47;4.13;;;;;;;6.53;100.00;100680.53;5247264;28;20017;-71
2022/12/29 20:04:54;;;;;;;25.23;6.03;;;;;;;6.56;100.00;100691.72;5247038;28;20404;-73
2022/12/29 20:07:28;;;;;;;14.27;4.53;;;;;;;6.54;100.00;100695.22;5245576;28;20077;-69
2022/12/29 20:09:59;;;;;;;14.53;3.07;;;;;;;6.50;100.00;100696.28;5245199;28;20036;-69
2022/12/29 20:12:30;;;;;;;14.57;4.70;;;;;;;6.47;100.00;100696.44;5245096;28;20029;-69
2022/12/29 20:15:06;;;;;;;15.60;3.30;;;;;;;6.49;100.00;100697.19;5246620;28;20068;-78
2022/12/29 20:17:37;;;;;;;15.50;3.83;;;;;;;6.39;100.00;100685.50;5244552;28;20415;-82
2022/12/29 20:20:09;;;;;;;14.13;4.03;;;;;;;6.49;100.00;100691.97;5241748;28;20041;-76
2022/12/29 20:22:40;;;;;;;15.43;3.47;;;;;;;6.41;100.00;100686.28;5248718;28;20516;-75
2022/12/29 20:25:11;;;;;;;14.40;3.57;;;;;;;6.50;100.00;100704.09;5251660;28;20094;-73
2022/12/29 20:27:43;;;;;;;14.30;3.30;;;;;;;6.53;100.00;100698.75;5246077;28;20634;-71
2022/12/29 20:30:14;;;;;;;14.40;3.00;;;;;;;6.47;100.00;100692.97;5243219;28;20392;-79
2022/12/29 20:32:45;;;;;;;13.17;2.87;;;;;;;6.47;100.00;100706.84;5243943;28;20037;-77
2022/12/29 20:35:16;;;;;;;15.20;3.70;;;;;;;6.48;100.00;100711.09;5244504;28;20060;-71
2022/12/29 20:37:48;;;;;;;12.47;3.03;;;;;;;6.37;100.00;100695.97;5244933;28;20036;-77
2022/12/29 20:40:19;;;;;;;18.00;6.07;;;;;;;6.44;100.00;100709.53;5243082;28;20037;-77
2022/12/29 20:42:53;;;;;;;18.93;4.67;;;;;;;6.44;100.00;100704.34;5240689;28;20025;-73
2022/12/29 20:45:24;;;;;;;16.00;3.13;;;;;;;6.42;100.00;100708.78;5265084;28;20029;-76
2022/12/29 20:47:56;;;;;;;14.83;3.20;;;;;;;6.35;100.00;100695.22;5238615;28;20035;-72
2022/12/29 20:50:27;;;;;;;19.27;3.87;;;;;;;6.37;100.00;100708.97;5263219;28;20032;-75
2022/12/29 20:52:59;;;;;;;14.70;3.50;;;;;;;6.38;100.00;100717.63;5264767;28;20072;-74
2022/12/29 20:55:30;;;;;;;12.63;3.13;;;;;;;6.39;100.00;100722.78;5259944;28;20048;-81
2022/12/29 20:58:01;;;;;;;20.60;4.07;;;;;;;6.40;100.00;100723.63;5259476;28;20032;-72
2022/12/29 21:00:33;;;;;;;13.67;2.80;;;;;;;6.38;100.00;100730.66;5248217;28;20060;-84
2022/12/29 21:03:04;;;;;;;10.43;2.50;;;;;;;6.34;100.00;100721.28;5254370;28;20087;-83
2022/12/29 21:05:37;;;;;;;16.63;3.90;;;;;;;6.33;100.00;100730.00;5268469;28;20160;-79
2022/12/29 21:08:10;;;;;;;15.10;3.67;;;;;;;6.35;100.00;100730.78;5263838;28;20061;-74
2022/12/29 21:10:44;;;;;;;15.20;3.30;;;;;;;6.34;100.00;100731.69;5259824;28;20386;-79
2022/12/29 21:13:16;;;;;;;18.13;3.85;;;;;;;6.37;100.00;100735.00;5250431;28;20649;-75
2022/12/29 21:15:48;;;;;;;15.13;3.67;;;;;;;6.35;100.00;100730.78;5262934;28;20051;-73
2022/12/29 21:18:19;;;;;;;16.40;5.10;;;;;;;6.30;100.00;100718.00;5245889;28;20013;-71
2022/12/29 21:20:59;;;;;;;17.87;3.67;;;;;;;6.31;100.00;100726.63;5249937;28;20045;-72
2022/12/29 21:23:30;;;;;;;13.07;4.00;;;;;;;6.32;100.00;100710.13;5261141;28;20545;-72
2022/12/29 21:26:06;;;;;;;15.50;3.43;;;;;;;6.26;100.00;100712.06;5263205;28;20089;-72
2022/12/29 21:28:42;;;;;;;15.77;3.80;;;;;;;6.28;100.00;100720.63;5252610;28;20139;-71
2022/12/29 21:31:36;;;;;;;17.60;3.50;;;;;;;6.36;100.00;100732.47;5252143;28;20029;-78
2022/12/29 21:34:08;;;;;;;15.40;3.77;;;;;;;6.25;100.00;100725.97;5239832;28;20033;-76
2022/12/29 21:36:39;;;;;;;12.67;3.03;;;;;;;6.27;100.00;100744.97;5240539;28;20045;-73
2022/12/29 21:39:11;;;;;;;17.87;4.20;;;;;;;6.25;100.00;100738.97;5252279;28;20025;-80
2022/12/29 21:41:42;;;;;;;16.43;3.10;;;;;;;6.26;100.00;100747.63;5248548;28;20049;-74
2022/12/29 21:47:04;;;;;;;17.60;4.03;;;;;;;6.20;100.00;100743.53;5236169;28;20025;-70
2022/12/29 21:49:35;;;;;;;16.67;3.40;;;;;;;6.23;100.00;100737.38;5233319;28;20033;-77
2022/12/29 21:52:07;;;;;;;15.00;4.17;;;;;;;6.25;100.00;100736.38;5247221;28;20029;-73
2022/12/29 22:14:32;;;;;;;12.63;3.37;;;;;;;6.09;100.00;100782.16;5264265;28;20032;-72
2022/12/29 22:17:04;;;;;;;11.20;2.83;;;;;;;6.11;100.00;100788.97;5255906;28;20021;-72
2022/12/29 22:19:35;;;;;;;17.90;4.03;;;;;;;6.11;100.00;100806.34;5254208;28;20434;-72
2022/12/29 22:22:06;;;;;;;15.07;3.40;;;;;;;6.08;100.00;100807.31;5255366;28;20035;-71
2022/12/29 22:24:37;;;;;;;16.00;3.60;;;;;;;6.08;100.00;100811.66;5268887;28;20111;-71
2022/12/29 22:27:09;;;;;;;17.60;3.57;;;;;;;6.08;100.00;100827.25;5257133;28;20053;-72
2022/12/29 22:29:40;;;;;;;14.17;2.97;;;;;;;6.02;100.00;100818.78;5259712;28;20452;-71
2022/12/29 22:32:11;;;;;;;14.83;3.60;;;;;;;5.99;100.00;100818.91;5254510;28;20036;-72
2022/12/29 22:34:43;;;;;;;18.33;3.93;;;;;;;6.06;100.00;100824.72;5261288;28;20024;-71
2022/12/29 22:37:15;;;;;;;21.83;3.60;;;;;;;6.05;100.00;100843.84;5249922;28;20033;-71
2022/12/29 22:39:46;;;;;;;12.93;3.40;;;;;;;6.00;100.00;100836.22;5248455;28;20059;-70
2022/12/29 22:42:18;;;;;;;13.90;3.70;;;;;;;6.00;100.00;100844.00;5254642;28;20486;-70
2022/12/29 22:44:49;;;;;;;10.17;3.00;;;;;;;5.99;100.00;100851.84;5254227;28;20044;-70
2022/12/29 22:47:21;;;;;;;12.77;2.47;;;;;;;6.01;100.00;100852.63;5255065;28;20029;-71
2022/12/29 22:49:52;;;;;;;16.13;3.77;;;;;;;5.97;100.00;100851.91;5243100;28;20464;-71
2022/12/29 22:52:24;;;;;;;14.23;3.20;;;;;;;5.98;100.00;100858.81;5252797;28;20088;-71
2022/12/29 22:54:55;;;;;;;14.33;3.33;;;;;;;5.94;100.00;100857.25;5244283;28;20029;-72
2022/12/29 22:57:29;;;;;;;11.63;3.23;;;;;;;5.94;100.00;100859.84;5291853;28;20483;-72
2022/12/29 23:00:00;;;;;;;16.50;4.03;;;;;;;5.93;100.00;100866.78;5243376;28;20027;-73
2022/12/29 23:02:31;;;;;;;12.23;3.23;;;;;;;5.95;100.00;100863.28;5247088;28;20399;-70